Time;durP1;ratioP1;P1;durP2;ratioP2;P2;SDS_P1;SDS_P2;PMS_P1;PMS_P2;Temp;Humidity;BMP_temperature;BMP_pressure;BME280_temperature;BME280_humidity;BME280_pressure;Samples;Min_cycle;Max_cycle;Signal;HPM_P1;HPM_P2
2021/08/11 00:00:49;;;;;;;4.38;2.95;;;15.40;99.90;;;;;;5010286;28;20057;-80
2021/08/11 00:03:17;;;;;;;5.57;2.67;;;15.30;99.90;;;;;;5009961;28;20046;-79
2021/08/11 00:05:46;;;;;;;3.38;3.08;;;15.30;99.90;;;;;;5009459;28;20054;-80
2021/08/11 00:08:14;;;;;;;10.45;3.63;;;15.20;99.90;;;;;;5010440;28;20054;-80
2021/08/11 00:10:42;;;;;;;6.07;4.50;;;15.30;99.90;;;;;;5009633;28;20053;-80
2021/08/11 00:13:09;;;;;;;5.47;3.50;;;15.40;99.90;;;;;;4996993;28;20046;-80
2021/08/11 00:15:37;;;;;;;5.35;3.00;;;15.50;99.90;;;;;;5009888;28;20042;-80
2021/08/11 00:18:05;;;;;;;3.88;2.75;;;15.50;99.90;;;;;;5010792;28;20076;-80
2021/08/11 00:20:35;;;;;;;6.28;2.90;;;15.40;99.90;;;;;;5009642;28;20085;-80
2021/08/11 00:23:09;;;;;;;5.72;3.22;;;15.40;99.90;;;;;;5010199;28;20080;-79
2021/08/11 00:25:37;;;;;;;4.32;3.00;;;15.40;99.90;;;;;;5010785;28;20475;-80
2021/08/11 00:28:05;;;;;;;8.27;4.75;;;15.30;99.90;;;;;;5008917;28;20061;-80
2021/08/11 00:30:32;;;;;;;5.72;3.53;;;15.30;99.90;;;;;;5009302;28;20443;-79
2021/08/11 00:33:01;;;;;;;5.35;3.53;;;15.20;99.90;;;;;;5008191;28;20733;-79
2021/08/11 00:35:29;;;;;;;10.15;3.83;;;15.20;99.90;;;;;;5007950;28;20507;-79
2021/08/11 00:37:57;;;;;;;4.10;3.13;;;15.20;99.90;;;;;;5009668;28;20049;-79
2021/08/11 00:40:26;;;;;;;6.03;3.53;;;15.10;99.90;;;;;;5007723;28;20042;-84
2021/08/11 00:42:55;;;;;;;10.38;5.25;;;15.10;99.90;;;;;;4991094;28;20053;-84
2021/08/11 00:45:24;;;;;;;3.90;3.13;;;15.10;99.90;;;;;;5008563;28;20053;-84
2021/08/11 00:47:54;;;;;;;7.00;3.17;;;15.10;99.90;;;;;;5007961;28;20054;-84
2021/08/11 00:50:24;;;;;;;5.18;3.30;;;15.10;99.90;;;;;;5007716;28;20046;-83
2021/08/11 00:52:54;;;;;;;7.43;4.97;;;15.10;99.90;;;;;;5007620;28;20049;-83
2021/08/11 00:55:24;;;;;;;3.10;2.72;;;15.10;99.90;;;;;;5007749;28;20041;-83
2021/08/11 00:57:54;;;;;;;4.35;3.15;;;15.10;99.90;;;;;;5007979;28;20050;-83
2021/08/11 01:00:30;;;;;;;11.18;4.35;;;15.00;99.90;;;;;;5007930;28;20165;-83
2021/08/11 01:02:59;;;;;;;8.68;4.35;;;15.10;99.90;;;;;;4975618;28;20064;-83
2021/08/11 01:05:28;;;;;;;6.45;4.53;;;15.10;99.90;;;;;;4992240;28;20395;-82
2021/08/11 01:07:57;;;;;;;7.45;4.80;;;15.20;99.90;;;;;;4991056;28;20414;-82
2021/08/11 01:10:27;;;;;;;4.35;3.58;;;15.30;99.90;;;;;;4992477;28;20498;-84
2021/08/11 01:12:55;;;;;;;5.53;5.03;;;15.40;99.90;;;;;;4994859;28;20041;-84
2021/08/11 01:15:23;;;;;;;5.28;3.97;;;15.50;99.90;;;;;;4994683;28;20630;-83
2021/08/11 01:17:51;;;;;;;4.82;3.67;;;15.40;99.90;;;;;;5013146;28;20088;-83
2021/08/11 01:20:21;;;;;;;11.25;4.82;;;15.40;99.90;;;;;;5012875;28;20056;-84
2021/08/11 01:23:03;;;;;;;7.25;4.40;;;15.40;99.90;;;;;;5031261;28;20049;-84
2021/08/11 01:25:30;;;;;;;6.38;4.65;;;15.40;99.90;;;;;;5029767;28;20045;-83
2021/08/11 01:28:36;;;;;;;11.98;5.85;;;15.40;99.90;;;;;;5030491;28;20053;-84
2021/08/11 01:31:08;;;;;;;4.47;2.83;;;15.30;99.90;;;;;;5030558;28;20042;-83
2021/08/11 01:34:01;;;;;;;6.00;4.22;;;15.30;99.90;;;;;;5017907;28;20038;-83
2021/08/11 01:36:50;;;;;;;5.70;3.45;;;15.20;99.90;;;;;;4990804;28;20050;-83
2021/08/11 01:39:25;;;;;;;3.72;3.38;;;15.20;99.90;;;;;;4991212;28;20053;-83
2021/08/11 01:42:15;;;;;;;3.95;3.55;;;15.10;99.90;;;;;;5000901;28;20042;-83
2021/08/11 01:44:53;;;;;;;7.63;4.35;;;15.00;99.90;;;;;;5010747;28;20050;-83
2021/08/11 01:47:34;;;;;;;4.68;3.75;;;15.00;99.90;;;;;;5010474;28;20042;-83
2021/08/11 01:50:03;;;;;;;6.53;3.60;;;14.90;99.90;;;;;;5010591;28;20945;-84
2021/08/11 01:52:33;;;;;;;4.78;3.75;;;15.00;99.90;;;;;;4994191;28;20053;-83
2021/08/11 01:55:02;;;;;;;4.63;4.05;;;14.90;99.90;;;;;;5010784;28;20057;-83
2021/08/11 01:57:33;;;;;;;6.30;3.67;;;15.00;99.90;;;;;;4993219;28;20057;-82
2021/08/11 02:00:01;;;;;;;4.65;3.42;;;15.00;99.90;;;;;;5009691;28;20053;-83
2021/08/11 02:02:41;;;;;;;4.78;3.97;;;15.00;99.90;;;;;;5012133;28;20057;-83
2021/08/11 02:05:20;;;;;;;3.38;3.08;;;15.00;99.90;;;;;;5010153;28;20403;-84
2021/08/11 02:07:49;;;;;;;5.25;3.95;;;15.00;99.90;;;;;;4994229;28;20053;-83
2021/08/11 02:10:19;;;;;;;6.32;4.13;;;14.90;99.90;;;;;;4994029;28;20045;-83
2021/08/11 02:12:48;;;;;;;3.92;3.63;;;14.80;99.90;;;;;;5009688;28;20050;-83
2021/08/11 02:15:16;;;;;;;10.45;3.63;;;14.90;99.90;;;;;;5011631;28;20117;-83
2021/08/11 02:17:44;;;;;;;4.50;3.60;;;14.80;99.90;;;;;;5011147;28;20057;-83
2021/08/11 02:20:14;;;;;;;5.85;4.00;;;14.80;99.90;;;;;;5012751;28;20060;-83
2021/08/11 02:22:42;;;;;;;3.80;3.43;;;14.90;99.90;;;;;;5029837;28;20048;-83
2021/08/11 02:25:12;;;;;;;4.63;3.38;;;14.90;99.90;;;;;;5013634;28;20292;-83
2021/08/11 02:27:54;;;;;;;19.42;4.68;;;14.90;99.90;;;;;;5029474;28;20046;-83
2021/08/11 02:30:25;;;;;;;6.43;3.63;;;14.90;99.90;;;;;;5029455;28;20064;-84
2021/08/11 02:32:58;;;;;;;;;;;15.00;99.90;;;;;;5014196;28;20049;-83
2021/08/11 02:35:26;;;;;;;5.53;3.88;;;15.00;99.90;;;;;;4996849;28;19921;-83
2021/08/11 02:38:20;;;;;;;8.73;4.20;;;15.00;99.90;;;;;;5013468;28;20053;-83
2021/08/11 02:41:12;;;;;;;5.78;3.95;;;15.10;99.90;;;;;;5012477;28;20042;-83
2021/08/11 02:44:06;;;;;;;4.10;3.70;;;15.10;99.90;;;;;;4992582;28;20403;-83
2021/08/11 02:46:39;;;;;;;5.05;3.50;;;15.10;99.90;;;;;;4993567;28;20054;-84
2021/08/11 02:49:13;;;;;;;4.10;3.35;;;15.10;99.90;;;;;;4993364;28;20415;-83
2021/08/11 02:51:42;;;;;;;5.53;4.25;;;15.10;99.90;;;;;;5010333;28;20403;-83
2021/08/11 02:54:14;;;;;;;7.78;3.97;;;15.10;99.90;;;;;;4977963;28;20050;-83
2021/08/11 02:56:44;;;;;;;11.25;4.43;;;15.10;99.90;;;;;;5009007;28;20076;-83
2021/08/11 02:59:15;;;;;;;4.47;3.85;;;15.10;99.90;;;;;;4989747;28;20042;-83
2021/08/11 03:01:44;;;;;;;9.23;4.20;;;15.10;99.90;;;;;;4990136;28;20046;-83
2021/08/11 03:04:14;;;;;;;4.03;3.38;;;15.00;99.90;;;;;;4989603;28;20050;-83
2021/08/11 03:06:43;;;;;;;12.60;3.97;;;15.00;99.90;;;;;;4973348;28;20399;-83
2021/08/11 03:09:12;;;;;;;5.40;3.78;;;15.10;99.90;;;;;;4957588;28;20058;-83
2021/08/11 03:11:40;;;;;;;6.40;4.15;;;15.10;99.90;;;;;;4996559;28;20042;-83
2021/08/11 03:14:14;;;;;;;10.30;4.82;;;15.10;99.90;;;;;;5009533;28;20061;-83
2021/08/11 03:16:44;;;;;;;4.38;3.45;;;15.10;99.90;;;;;;5008825;28;20636;-83
2021/08/11 03:19:13;;;;;;;5.38;3.88;;;15.10;99.90;;;;;;5021105;28;20057;-83
2021/08/11 03:21:41;;;;;;;7.75;3.95;;;15.00;99.90;;;;;;5028255;28;20046;-83
2021/08/11 03:24:13;;;;;;;4.82;4.20;;;15.00;99.90;;;;;;5028953;28;20045;-83
2021/08/11 03:26:41;;;;;;;4.65;4.13;;;15.00;99.90;;;;;;5028932;28;20053;-83
2021/08/11 03:29:30;;;;;;;8.10;3.45;;;15.00;99.90;;;;;;5005187;28;20046;-83
2021/08/11 03:31:59;;;;;;;4.20;3.40;;;14.90;99.90;;;;;;5028428;28;20045;-83
2021/08/11 03:34:28;;;;;;;7.00;4.05;;;14.90;99.90;;;;;;5012223;28;20046;-83
2021/08/11 03:36:57;;;;;;;7.68;4.13;;;14.90;99.90;;;;;;5008322;28;20049;-83
2021/08/11 03:39:25;;;;;;;10.75;4.35;;;14.90;99.90;;;;;;4992681;28;20057;-83
2021/08/11 03:41:55;;;;;;;8.85;5.35;;;14.90;99.90;;;;;;5008379;28;20050;-83
2021/08/11 03:44:23;;;;;;;10.20;4.43;;;14.90;99.90;;;;;;4992560;28;20065;-83
2021/08/11 03:46:54;;;;;;;5.57;4.32;;;14.90;99.90;;;;;;4992335;28;20070;-83
2021/08/11 03:49:22;;;;;;;6.47;4.22;;;14.80;99.90;;;;;;4992282;28;20050;-83
2021/08/11 03:51:50;;;;;;;5.78;3.65;;;14.80;99.90;;;;;;4991487;28;20407;-83
2021/08/11 03:54:18;;;;;;;5.85;3.78;;;14.80;99.90;;;;;;4992929;28;20057;-83
2021/08/11 03:56:46;;;;;;;4.78;4.30;;;14.70;99.90;;;;;;4991119;28;20038;-83
2021/08/11 03:59:14;;;;;;;4.93;3.55;;;14.70;99.90;;;;;;4992559;28;20045;-83
2021/08/11 04:01:42;;;;;;;5.45;4.18;;;14.60;99.90;;;;;;5008599;28;20046;-81
2021/08/11 04:04:10;;;;;;;6.07;5.22;;;14.60;99.90;;;;;;5008098;28;20657;-81
2021/08/11 04:06:38;;;;;;;4.13;3.40;;;14.60;99.90;;;;;;5009609;28;20046;-81
2021/08/11 04:09:11;;;;;;;3.95;3.65;;;14.50;99.90;;;;;;5007567;28;20065;-81
2021/08/11 04:11:52;;;;;;;4.78;3.40;;;14.50;99.90;;;;;;5007682;28;20034;-81
2021/08/11 04:14:20;;;;;;;6.90;4.30;;;14.50;99.90;;;;;;5010027;28;20395;-81
2021/08/11 04:16:48;;;;;;;3.55;3.25;;;14.50;99.90;;;;;;5009233;28;20054;-81
2021/08/11 04:19:15;;;;;;;4.38;3.60;;;14.40;99.90;;;;;;5022338;28;20053;-81
2021/08/11 04:21:43;;;;;;;6.13;4.30;;;14.40;99.90;;;;;;5028449;28;20045;-81
2021/08/11 04:24:11;;;;;;;3.50;3.20;;;14.40;99.90;;;;;;5029171;28;20049;-80
2021/08/11 04:26:38;;;;;;;5.85;4.38;;;14.30;99.90;;;;;;5028956;28;20061;-80
2021/08/11 04:29:06;;;;;;;5.72;3.58;;;14.30;99.90;;;;;;5029159;28;20045;-81
2021/08/11 04:31:34;;;;;;;8.90;4.50;;;14.30;99.90;;;;;;5028326;28;20746;-80
2021/08/11 04:34:04;;;;;;;4.75;3.65;;;14.30;99.90;;;;;;5027655;28;20061;-80
2021/08/11 04:36:37;;;;;;;4.63;3.75;;;14.20;99.90;;;;;;5027067;28;20082;-81
2021/08/11 04:39:04;;;;;;;5.38;4.22;;;14.20;99.90;;;;;;5027463;28;20068;-80
2021/08/11 04:41:51;;;;;;;5.95;3.40;;;14.20;99.90;;;;;;5019735;28;20050;-81
2021/08/11 04:44:18;;;;;;;3.65;3.35;;;14.20;99.90;;;;;;5009229;28;20054;-80
2021/08/11 04:46:46;;;;;;;5.90;4.70;;;14.30;99.90;;;;;;5011901;28;20474;-81
2021/08/11 04:49:15;;;;;;;3.70;3.40;;;14.30;99.90;;;;;;5012894;28;20046;-81
2021/08/11 04:51:42;;;;;;;6.43;4.63;;;14.40;99.90;;;;;;5010897;28;20514;-81
2021/08/11 04:54:10;;;;;;;7.55;3.83;;;14.30;99.90;;;;;;5013351;28;20058;-80
2021/08/11 04:56:38;;;;;;;6.65;4.38;;;14.40;99.90;;;;;;5012326;28;20499;-80
2021/08/11 04:59:05;;;;;;;3.97;3.33;;;14.50;99.90;;;;;;4999194;28;20069;-81
2021/08/11 05:01:33;;;;;;;5.40;3.85;;;14.60;99.90;;;;;;4992967;28;20046;-81
2021/08/11 05:04:01;;;;;;;4.70;3.80;;;14.60;99.90;;;;;;4992994;28;20042;-81
2021/08/11 05:06:30;;;;;;;3.83;2.83;;;14.70;99.90;;;;;;4995998;28;20525;-81
2021/08/11 05:08:57;;;;;;;5.95;3.92;;;14.80;99.90;;;;;;5011063;28;20049;-81
2021/08/11 05:11:25;;;;;;;4.35;3.20;;;14.90;99.90;;;;;;5011759;28;20061;-81
2021/08/11 05:13:53;;;;;;;6.22;3.55;;;15.00;99.90;;;;;;5012785;28;20462;-81
2021/08/11 05:16:21;;;;;;;3.03;2.72;;;15.00;99.90;;;;;;5012371;28;20046;-81
2021/08/11 05:18:49;;;;;;;4.43;3.65;;;15.00;99.90;;;;;;5022047;28;20049;-81
2021/08/11 05:21:19;;;;;;;3.75;3.25;;;15.10;99.90;;;;;;5031002;28;20072;-81
2021/08/11 05:23:52;;;;;;;5.30;3.97;;;15.10;99.90;;;;;;5031975;28;20038;-81
2021/08/11 05:26:20;;;;;;;4.50;3.28;;;15.30;99.90;;;;;;5032134;28;20399;-81
2021/08/11 05:28:49;;;;;;;3.53;3.13;;;15.40;99.90;;;;;;5032010;28;20049;-81
2021/08/11 05:31:17;;;;;;;6.30;4.15;;;15.60;99.90;;;;;;5031486;28;20109;-81
2021/08/11 05:33:44;;;;;;;5.25;4.20;;;15.70;99.90;;;;;;5011214;28;20047;-81
2021/08/11 05:36:12;;;;;;;5.50;3.35;;;15.80;99.90;;;;;;4992173;28;20046;-81
2021/08/11 05:38:40;;;;;;;7.88;4.18;;;15.90;99.90;;;;;;4975154;28;20496;-81
2021/08/11 05:41:08;;;;;;;3.38;3.03;;;16.00;99.90;;;;;;4993911;28;20598;-81
2021/08/11 05:43:35;;;;;;;4.70;3.90;;;16.10;99.90;;;;;;5010518;28;20395;-81
2021/08/11 05:46:05;;;;;;;4.78;4.28;;;16.40;99.90;;;;;;5010853;28;20053;-81
2021/08/11 05:48:33;;;;;;;4.07;3.05;;;16.60;99.90;;;;;;5011901;28;20050;-81
2021/08/11 05:51:01;;;;;;;3.97;3.58;;;16.70;99.90;;;;;;5011347;28;20046;-81
2021/08/11 05:53:31;;;;;;;4.90;4.40;;;16.90;99.90;;;;;;5011867;28;20045;-81
2021/08/11 05:56:04;;;;;;;4.50;3.53;;;17.00;99.90;;;;;;5011264;28;20038;-81
2021/08/11 05:58:33;;;;;;;10.35;5.60;;;17.10;99.90;;;;;;5010510;28;20479;-81
2021/08/11 06:01:00;;;;;;;6.13;4.15;;;17.00;99.90;;;;;;5009759;28;20522;-80
2021/08/11 06:03:28;;;;;;;5.20;4.65;;;17.10;99.90;;;;;;5011500;28;20042;-80
2021/08/11 06:06:07;;;;;;;19.33;3.83;;;17.20;99.90;;;;;;5010015;28;20057;-80
2021/08/11 06:08:35;;;;;;;7.18;5.30;;;17.30;99.90;;;;;;5010090;28;20057;-80
2021/08/11 06:11:03;;;;;;;3.83;3.38;;;17.40;99.90;;;;;;5010064;28;20053;-80
2021/08/11 06:13:30;;;;;;;5.57;3.92;;;17.40;99.90;;;;;;5010630;28;20049;-80
2021/08/11 06:15:58;;;;;;;7.05;3.85;;;17.50;99.90;;;;;;5011248;28;20046;-80
2021/08/11 06:18:26;;;;;;;4.63;3.75;;;17.60;99.90;;;;;;4999954;28;20410;-79
2021/08/11 06:20:55;;;;;;;5.78;5.28;;;17.70;99.90;;;;;;5030501;28;20046;-80
2021/08/11 06:23:23;;;;;;;6.13;3.85;;;17.80;99.90;;;;;;5029729;28;20053;-80
2021/08/11 06:25:51;;;;;;;11.95;6.20;;;17.90;99.90;;;;;;5030217;28;20060;-79
2021/08/11 06:28:19;;;;;;;6.07;4.68;;;18.00;99.90;;;;;;5029100;28;20041;-79
2021/08/11 06:30:46;;;;;;;8.30;4.10;;;18.30;99.90;;;;;;5030529;28;20045;-79
2021/08/11 06:33:14;;;;;;;6.40;3.80;;;18.60;99.90;;;;;;5030949;28;20041;-79
2021/08/11 06:35:42;;;;;;;5.55;3.88;;;19.00;99.90;;;;;;5030465;28;20061;-79
2021/08/11 06:38:10;;;;;;;6.00;4.75;;;19.10;99.90;;;;;;5031325;28;20046;-79
2021/08/11 06:40:38;;;;;;;6.07;4.20;;;19.10;99.90;;;;;;5030480;28;20046;-79
2021/08/11 06:43:06;;;;;;;5.82;5.10;;;19.10;99.90;;;;;;5010881;28;20049;-79
2021/08/11 06:45:36;;;;;;;5.23;4.73;;;19.20;99.90;;;;;;5010047;28;20046;-79
2021/08/11 06:48:06;;;;;;;7.28;4.38;;;19.10;99.90;;;;;;5009278;28;20050;-79
2021/08/11 06:50:35;;;;;;;5.00;4.50;;;19.20;99.90;;;;;;5009454;28;20054;-79
2021/08/11 06:53:03;;;;;;;8.98;3.95;;;19.30;99.90;;;;;;5010544;28;20045;-79
2021/08/11 06:55:31;;;;;;;4.35;3.95;;;19.50;99.90;;;;;;5009580;28;20049;-79
2021/08/11 06:57:58;;;;;;;4.47;3.33;;;19.80;99.90;;;;;;5006010;28;20050;-79
2021/08/11 07:00:26;;;;;;;10.02;5.20;;;19.90;99.90;;;;;;4989315;28;20054;-79
2021/08/11 07:02:54;;;;;;;5.47;3.85;;;19.80;99.90;;;;;;4973524;28;20050;-79
2021/08/11 07:05:23;;;;;;;4.15;3.53;;;19.90;99.90;;;;;;4991225;28;20728;-79
2021/08/11 07:07:51;;;;;;;5.30;4.65;;;20.10;99.90;;;;;;4990262;28;20057;-79
2021/08/11 07:10:18;;;;;;;5.43;3.95;;;20.50;99.90;;;;;;4990155;28;20047;-79
2021/08/11 07:12:46;;;;;;;4.60;3.45;;;20.70;99.90;;;;;;5006726;28;20057;-81
2021/08/11 07:15:15;;;;;;;6.20;4.32;;;20.90;99.90;;;;;;5010235;28;20037;-80
2021/08/11 07:17:50;;;;;;;8.10;2.95;;;21.00;99.90;;;;;;5010734;28;20049;-80
2021/08/11 07:20:18;;;;;;;7.95;4.55;;;20.90;99.90;;;;;;5029276;28;20049;-80
2021/08/11 07:22:45;;;;;;;4.05;3.65;;;20.80;99.90;;;;;;5029585;28;20077;-80
2021/08/11 07:25:14;;;;;;;5.05;3.95;;;20.90;99.90;;;;;;5028642;28;20033;-80
2021/08/11 07:27:42;;;;;;;10.43;4.50;;;21.00;99.90;;;;;;5028162;28;20502;-80
2021/08/11 07:30:11;;;;;;;8.63;4.70;;;21.10;99.90;;;;;;5030028;28;20583;-80
2021/08/11 07:32:40;;;;;;;5.35;4.03;;;21.10;99.90;;;;;;5026458;28;20052;-81
2021/08/11 07:35:08;;;;;;;10.00;4.03;;;21.00;99.90;;;;;;4990327;28;20054;-81
2021/08/11 07:38:06;;;;;;;6.07;3.75;;;21.10;99.90;;;;;;4990337;28;20484;-81
2021/08/11 07:40:35;;;;;;;5.07;2.85;;;21.20;99.90;;;;;;4985429;28;20062;-81
2021/08/11 07:43:05;;;;;;;12.93;2.97;;;21.20;99.90;;;;;;5008647;28;20057;-81
2021/08/11 07:45:36;;;;;;;4.80;2.88;;;21.20;99.90;;;;;;5009767;28;20065;-82
2021/08/11 07:48:05;;;;;;;7.55;3.53;;;21.20;99.90;;;;;;5008195;28;20048;-81
2021/08/11 07:50:35;;;;;;;3.30;2.75;;;21.10;99.90;;;;;;5008539;28;20153;-80
2021/08/11 07:53:02;;;;;;;4.57;2.75;;;21.20;99.90;;;;;;5009052;28;20053;-80
2021/08/11 07:55:30;;;;;;;6.55;2.90;;;21.40;99.90;;;;;;5009660;28;20048;-81
2021/08/11 07:57:58;;;;;;;4.38;3.17;;;21.50;99.90;;;;;;5009849;28;20564;-81
2021/08/11 08:00:27;;;;;;;4.53;3.17;;;21.40;99.90;;;;;;5007505;28;20045;-81
2021/08/11 08:02:54;;;;;;;3.88;3.53;;;21.40;99.90;;;;;;5008004;28;20054;-81
2021/08/11 08:05:23;;;;;;;6.30;3.10;;;21.50;99.90;;;;;;5009652;28;20045;-81
2021/08/11 08:07:51;;;;;;;4.22;3.13;;;21.50;99.90;;;;;;5007886;28;20046;-81
2021/08/11 08:10:19;;;;;;;5.68;3.50;;;21.30;99.90;;;;;;5009157;28;20057;-81
2021/08/11 08:12:48;;;;;;;5.45;3.60;;;21.40;99.90;;;;;;5007513;28;20053;-81
2021/08/11 08:15:16;;;;;;;4.93;4.00;;;21.50;99.90;;;;;;5009283;28;20038;-81
2021/08/11 08:17:45;;;;;;;4.05;2.95;;;21.50;99.90;;;;;;5010180;28;20042;-81
2021/08/11 08:20:16;;;;;;;5.57;3.17;;;21.70;99.90;;;;;;5030160;28;20491;-80
2021/08/11 08:22:47;;;;;;;3.90;2.95;;;21.80;99.90;;;;;;5033582;28;20056;-80
2021/08/11 08:25:21;;;;;;;5.68;3.25;;;21.80;99.90;;;;;;5032721;28;20049;-80
2021/08/11 08:27:53;;;;;;;2.88;2.58;;;21.60;99.90;;;;;;5032713;28;20057;-81
2021/08/11 08:30:43;;;;;;;3.72;3.33;;;21.70;99.90;;;;;;5033277;28;20046;-80
2021/08/11 08:33:10;;;;;;;9.20;3.58;;;21.80;99.90;;;;;;5032751;28;20052;-80
2021/08/11 08:35:38;;;;;;;3.28;2.35;;;21.70;99.90;;;;;;5032449;28;20061;-80
2021/08/11 08:38:06;;;;;;;6.53;2.95;;;21.70;99.90;;;;;;5033144;28;20052;-80
2021/08/11 08:40:37;;;;;;;6.25;3.35;;;21.70;99.90;;;;;;5032764;28;20638;-80
2021/08/11 08:43:05;;;;;;;;;;;21.70;99.90;;;;;;5013827;28;20046;-78
2021/08/11 08:45:34;;;;;;;2.45;1.63;;;21.80;99.90;;;;;;5013388;28;19925;-81
2021/08/11 08:48:04;;;;;;;2.95;2.05;;;22.00;99.90;;;;;;5012918;28;20402;-80
2021/08/11 08:50:34;;;;;;;2.03;1.83;;;21.80;99.90;;;;;;5012335;28;20053;-80
2021/08/11 08:53:03;;;;;;;5.78;2.10;;;21.70;99.90;;;;;;5012802;28;20049;-80
2021/08/11 08:55:32;;;;;;;4.55;2.58;;;21.70;99.90;;;;;;5011503;28;20042;-80
2021/08/11 08:58:04;;;;;;;2.22;2.03;;;21.70;99.90;;;;;;5012797;28;20050;-80
2021/08/11 09:00:34;;;;;;;1.98;1.88;;;21.60;99.90;;;;;;5010839;28;20050;-80
2021/08/11 09:03:06;;;;;;;2.17;1.98;;;21.70;99.90;;;;;;4995155;28;20065;-80
2021/08/11 09:05:35;;;;;;;2.53;2.05;;;21.70;99.90;;;;;;5011665;28;20041;-80
2021/08/11 09:08:03;;;;;;;2.28;1.98;;;21.70;99.90;;;;;;5012325;28;20058;-80
2021/08/11 09:10:31;;;;;;;1.92;1.60;;;21.80;99.90;;;;;;5012688;28;20501;-80
2021/08/11 09:13:08;;;;;;;5.95;2.17;;;21.80;99.90;;;;;;5012269;28;20042;-80
2021/08/11 09:15:42;;;;;;;1.63;1.52;;;21.70;99.90;;;;;;5012498;28;20042;-80
2021/08/11 09:18:13;;;;;;;3.10;2.08;;;21.80;99.90;;;;;;5016563;28;20041;-80
2021/08/11 09:20:43;;;;;;;2.80;1.80;;;21.90;99.90;;;;;;5031260;28;20049;-81
2021/08/11 09:23:13;;;;;;;2.25;2.05;;;21.90;99.90;;;;;;5030751;28;20118;-80
2021/08/11 09:26:01;;;;;;;2.85;2.55;;;22.00;99.90;;;;;;5032360;28;20060;-80
2021/08/11 09:28:31;;;;;;;3.22;2.13;;;21.90;99.90;;;;;;5014171;28;20065;-81
2021/08/11 09:31:24;;;;;;;2.58;2.08;;;22.00;99.90;;;;;;4997842;28;20053;-80
2021/08/11 09:33:58;;;;;;;2.08;1.80;;;22.10;99.90;;;;;;5007543;28;20054;-81
2021/08/11 09:36:25;;;;;;;3.10;1.88;;;22.30;99.90;;;;;;4991836;28;20042;-80
2021/08/11 09:39:02;;;;;;;2.33;1.50;;;22.20;99.90;;;;;;4975043;28;20093;-81
2021/08/11 09:41:32;;;;;;;3.03;1.92;;;22.30;99.90;;;;;;4990800;28;20053;-80
2021/08/11 09:44:10;;;;;;;3.60;2.30;;;22.40;99.90;;;;;;4996682;28;20049;-80
2021/08/11 09:46:40;;;;;;;2.83;2.60;;;22.50;99.90;;;;;;5011787;28;20042;-80
2021/08/11 09:49:20;;;;;;;2.47;2.28;;;22.40;99.90;;;;;;5010458;28;20046;-80
2021/08/11 09:52:01;;;;;;;4.35;2.88;;;22.50;99.90;;;;;;4993233;28;20076;-81
2021/08/11 09:54:32;;;;;;;4.35;3.20;;;22.50;99.90;;;;;;5012177;28;20506;-81
2021/08/11 09:56:59;;;;;;;;;;;22.40;99.90;;;;;;5009862;28;20522;-80
2021/08/11 09:59:27;;;;;;;5.70;2.47;;;22.50;99.90;;;;;;5011539;28;20342;-80
2021/08/11 10:02:15;;;;;;;2.42;2.20;;;22.60;99.90;;;;;;5010245;28;20049;-81
2021/08/11 10:04:43;;;;;;;6.32;2.63;;;22.80;99.90;;;;;;5011069;28;20041;-80
2021/08/11 10:07:11;;;;;;;3.20;2.17;;;23.00;99.90;;;;;;5011362;28;20049;-81
2021/08/11 10:09:40;;;;;;;4.75;2.42;;;23.10;99.90;;;;;;5011407;28;20053;-81
2021/08/11 10:12:27;;;;;;;8.00;3.22;;;23.10;99.90;;;;;;5007983;28;20050;-80
2021/08/11 10:14:59;;;;;;;3.53;2.83;;;23.20;99.90;;;;;;5011488;28;20050;-80
2021/08/11 10:17:34;;;;;;;4.95;2.85;;;23.20;99.90;;;;;;5011850;28;20050;-81
2021/08/11 10:20:07;;;;;;;3.38;2.20;;;23.20;99.90;;;;;;5029198;28;20792;-80
2021/08/11 10:22:37;;;;;;;2.47;1.80;;;23.30;99.90;;;;;;5031219;28;20056;-80
2021/08/11 10:25:06;;;;;;;2.35;1.83;;;23.10;99.90;;;;;;5029331;28;20068;-80
2021/08/11 10:27:35;;;;;;;2.53;2.10;;;23.10;99.90;;;;;;5030399;28;20060;-80
2021/08/11 10:30:04;;;;;;;3.78;2.85;;;23.00;99.90;;;;;;5030994;28;20053;-81
2021/08/11 10:32:32;;;;;;;2.97;2.40;;;23.00;99.90;;;;;;5030339;28;20038;-80
2021/08/11 10:35:02;;;;;;;9.30;2.30;;;23.10;99.90;;;;;;5030348;28;20050;-80
2021/08/11 10:37:34;;;;;;;3.17;2.47;;;23.30;99.90;;;;;;5030970;28;20042;-80
2021/08/11 10:40:05;;;;;;;2.70;2.47;;;23.30;99.90;;;;;;5029364;28;20399;-80
2021/08/11 10:42:33;;;;;;;5.05;3.03;;;23.20;99.90;;;;;;5013720;28;20308;-81
2021/08/11 10:45:02;;;;;;;4.38;2.10;;;23.20;99.90;;;;;;5008442;28;20455;-81
2021/08/11 10:47:32;;;;;;;4.32;2.50;;;23.30;99.90;;;;;;5009197;28;20060;-81
2021/08/11 10:50:03;;;;;;;3.65;3.13;;;23.40;99.90;;;;;;5010228;28;20072;-81
2021/08/11 10:52:32;;;;;;;3.80;3.05;;;23.50;99.90;;;;;;4992841;28;20038;-81
2021/08/11 10:55:02;;;;;;;3.58;3.10;;;23.50;99.90;;;;;;5009165;28;20050;-81
2021/08/11 10:57:36;;;;;;;2.45;2.25;;;23.40;99.90;;;;;;5009509;28;20049;-81
2021/08/11 11:00:05;;;;;;;4.70;3.00;;;23.40;99.90;;;;;;4990129;28;20436;-81
2021/08/11 11:02:41;;;;;;;3.17;2.40;;;23.40;99.90;;;;;;4991017;28;20069;-80
2021/08/11 11:05:26;;;;;;;2.47;2.28;;;23.50;99.90;;;;;;4990544;28;20042;-80
2021/08/11 11:08:10;;;;;;;4.00;3.60;;;23.70;99.90;;;;;;4990215;28;20516;-81
2021/08/11 11:10:42;;;;;;;3.08;2.67;;;23.70;99.90;;;;;;4991019;28;20050;-81
2021/08/11 11:13:26;;;;;;;4.07;3.20;;;23.70;99.90;;;;;;4990079;28;20050;-81
2021/08/11 11:15:55;;;;;;;3.40;2.47;;;23.70;99.90;;;;;;4990793;28;20042;-80
2021/08/11 11:18:24;;;;;;;3.63;2.63;;;23.70;99.90;;;;;;5001243;28;20046;-80
2021/08/11 11:20:58;;;;;;;7.05;2.70;;;23.70;99.90;;;;;;5029071;28;20146;-81
2021/08/11 11:23:33;;;;;;;4.00;2.60;;;23.90;99.90;;;;;;5028542;28;20056;-80
2021/08/11 11:26:05;;;;;;;3.70;3.03;;;23.90;99.90;;;;;;5028958;28;20046;-80
2021/08/11 11:29:01;;;;;;;7.03;3.22;;;23.90;99.90;;;;;;5027716;28;20045;-80
2021/08/11 11:31:48;;;;;;;2.63;2.42;;;24.10;99.90;;;;;;5028091;28;20160;-80
2021/08/11 11:34:23;;;;;;;4.35;3.42;;;24.10;99.90;;;;;;5000385;28;20050;-81
2021/08/11 11:36:57;;;;;;;3.00;2.80;;;24.20;99.90;;;;;;4989860;28;20423;-80
2021/08/11 11:39:33;;;;;;;3.72;3.22;;;24.10;99.90;;;;;;4988818;28;20047;-81
2021/08/11 11:42:08;;;;;;;2.38;2.17;;;24.10;99.90;;;;;;5000504;28;20053;-80
2021/08/11 11:44:42;;;;;;;4.25;2.40;;;23.90;99.90;;;;;;5008280;28;20045;-80
2021/08/11 11:47:41;;;;;;;4.60;3.50;;;23.90;99.90;;;;;;5008559;28;20506;-81
2021/08/11 11:50:18;;;;;;;5.93;3.38;;;24.00;99.90;;;;;;4972706;28;20038;-81
2021/08/11 11:52:57;;;;;;;10.82;5.55;;;24.10;99.90;;;;;;4989934;28;20047;-80
2021/08/11 11:55:32;;;;;;;4.68;2.70;;;24.30;99.90;;;;;;4989860;28;20038;-80
2021/08/11 11:58:04;;;;;;;3.20;2.90;;;24.50;99.90;;;;;;4988570;28;20464;-81
2021/08/11 12:00:33;;;;;;;3.10;2.85;;;24.60;99.90;;;;;;4988015;28;20811;-80
2021/08/11 12:03:01;;;;;;;12.13;3.45;;;24.60;99.90;;;;;;4972859;28;20062;-81
2021/08/11 12:05:48;;;;;;;3.53;3.23;;;24.80;99.90;;;;;;4956903;28;20058;-81
2021/08/11 12:08:23;;;;;;;4.45;2.80;;;24.90;99.90;;;;;;4989207;28;20305;-81
2021/08/11 12:11:12;;;;;;;4.07;2.88;;;25.00;99.90;;;;;;4991001;28;20046;-84
2021/08/11 12:13:54;;;;;;;7.22;2.88;;;24.90;99.90;;;;;;5008734;28;20065;-84
2021/08/11 12:16:32;;;;;;;3.38;2.85;;;25.00;99.90;;;;;;5009622;28;20089;-84
2021/08/11 12:19:08;;;;;;;3.95;3.15;;;25.20;99.90;;;;;;5019425;28;20052;-84
2021/08/11 12:21:36;;;;;;;5.63;3.30;;;24.90;99.90;;;;;;5028164;28;20108;-84
2021/08/11 12:24:05;;;;;;;2.88;2.67;;;24.90;99.90;;;;;;5029444;28;20048;-85
2021/08/11 12:26:34;;;;;;;3.78;2.80;;;25.00;99.90;;;;;;5012529;28;20053;-85
2021/08/11 12:29:13;;;;;;;6.65;4.25;;;25.20;99.90;;;;;;5011604;28;20048;-85
2021/08/11 12:31:41;;;;;;;3.08;2.78;;;25.40;99.90;;;;;;5011105;28;20048;-85
2021/08/11 12:34:10;;;;;;;7.20;3.47;;;25.50;99.90;;;;;;5028505;28;20481;-85
2021/08/11 12:36:41;;;;;;;4.35;3.15;;;25.60;99.90;;;;;;5028689;28;20049;-84
2021/08/11 12:39:18;;;;;;;4.63;3.38;;;25.50;99.90;;;;;;5013306;28;20053;-84
2021/08/11 12:41:58;;;;;;;5.30;3.10;;;25.40;99.90;;;;;;5021315;28;20057;-85
2021/08/11 12:44:30;;;;;;;5.20;3.72;;;25.00;99.90;;;;;;5009988;28;20038;-85
2021/08/11 12:47:03;;;;;;;5.35;3.83;;;24.90;99.90;;;;;;5008448;28;20048;-84
2021/08/11 12:49:41;;;;;;;9.70;4.05;;;25.00;99.90;;;;;;5003711;28;20046;-85
2021/08/11 12:52:16;;;;;;;4.20;3.25;;;24.90;99.90;;;;;;5004428;28;20049;-85
2021/08/11 12:54:55;;;;;;;6.00;3.22;;;24.70;99.90;;;;;;4973896;28;20050;-85
2021/08/11 12:57:24;;;;;;;3.85;2.60;;;24.50;99.90;;;;;;4989072;28;20042;-85
2021/08/11 12:59:54;;;;;;;3.08;2.88;;;24.40;99.90;;;;;;4992160;28;20038;-85
2021/08/11 13:02:29;;;;;;;6.18;3.83;;;24.40;99.90;;;;;;5008365;28;20042;-85
2021/08/11 13:05:07;;;;;;;5.00;3.10;;;24.40;99.90;;;;;;4976302;28;20053;-84
2021/08/11 13:07:59;;;;;;;4.40;3.08;;;24.30;99.90;;;;;;4994629;28;20418;-84
2021/08/11 13:10:33;;;;;;;3.90;3.50;;;24.30;99.90;;;;;;4980604;28;20061;-83